METAR Data
IDs: Format: Raw Decoded Include TAF

Data at: 0448 UTC 26 Sep 2018

KN03 260435Z AUTO 20008G14KT 10SM SCT015 OVC023 18/17 A3004 RMK AO2
KN03 260415Z AUTO 20009G14KT 10SM SCT014 BKN020 OVC025 18/17 A3005 RMK AO2
KN03 260355Z AUTO 19008KT 10SM BKN014 OVC020 18/17 A3006 RMK AO2
KN03 260335Z AUTO 20007KT 10SM BKN012 OVC020 18/17 A3005 RMK AO2
KN03 260315Z AUTO 19005KT 10SM BKN012 OVC019 18/17 A3005 RMK AO2
KN03 260255Z AUTO 19007KT 10SM BKN010 OVC019 18/17 A3006 RMK AO2
KN03 260235Z AUTO 19006KT 10SM OVC010 18/17 A3006 RMK AO2
KN03 260215Z AUTO 20006KT 10SM OVC012 18/17 A3008 RMK AO2
KN03 260155Z AUTO 20007KT 10SM BKN010 OVC016 18/17 A3008 RMK AO2
KN03 260135Z AUTO 19004KT 10SM OVC010 17/17 A3008 RMK AO2
KN03 260115Z AUTO 00000KT 10SM OVC012 17/17 A3007 RMK AO2
KN03 260055Z AUTO 00000KT 10SM OVC012 17/16 A3007 RMK AO2
KN03 260035Z AUTO 00000KT 10SM OVC012 18/17 A3007 RMK AO2
KN03 260015Z AUTO 00000KT 10SM OVC012 17/17 A3007 RMK AO2
KN03 252355Z AUTO 00000KT 10SM OVC012 17/17 A3008 RMK AO2
KN03 252335Z AUTO 00000KT 10SM OVC012 18/17 A3009 RMK AO2
KN03 252315Z AUTO 21006KT 10SM -DZ OVC012 17/17 A3009 RMK AO2
KN03 252255Z AUTO 18006KT 10SM OVC012 17/16 A3009 RMK AO2
KN03 252235Z AUTO 17004KT 10SM OVC012 17/16 A3010 RMK AO2
KN03 252215Z AUTO 16004KT 10SM OVC012 17/16 A3011 RMK AO2
KN03 252155Z AUTO 18007KT 10SM OVC012 17/16 A3011 RMK AO2
KN03 252135Z AUTO 18005KT 10SM OVC012 18/16 A3011 RMK AO2
KN03 252115Z AUTO 17006KT 10SM OVC012 17/16 A3011 RMK AO2
KN03 252055Z AUTO 19003KT 10SM OVC012 17/16 A3012 RMK AO2
KN03 252035Z AUTO 17004KT 10SM OVC012 17/16 A3012 RMK AO2
KN03 252015Z AUTO 17007KT 10SM OVC012 17/16 A3012 RMK AO2
KN03 251955Z AUTO 19008KT 10SM OVC012 17/16 A3014 RMK AO2
KN03 251935Z AUTO 17007KT 10SM OVC012 17/15 A3014 RMK AO2
KN03 251915Z AUTO 17005KT 10SM OVC012 17/15 A3015 RMK AO2
KN03 251855Z AUTO 14003KT 10SM OVC012 16/15 A3016 RMK AO2
KN03 251835Z AUTO 16005KT 10SM OVC012 16/15 A3017 RMK AO2
KN03 251815Z AUTO 16004KT 10SM OVC012 15/14 A3018 RMK AO2
KN03 251755Z AUTO 17003KT 10SM OVC012 15/13 A3018 RMK AO2
KN03 251735Z AUTO 20004KT 10SM OVC012 15/13 A3019 RMK AO2
KN03 251715Z AUTO 00000KT 10SM OVC012 14/13 A3020 RMK AO2
KN03 251655Z AUTO 00000KT 10SM OVC012 14/13 A3020 RMK AO2
KN03 251635Z AUTO 00000KT 10SM OVC012 13/12 A3021 RMK AO2
KN03 251615Z AUTO 00000KT 10SM -RA OVC012 13/12 A3022 RMK AO2
KN03 251555Z AUTO 10004KT 10SM -DZ OVC012 13/12 A3023 RMK AO2
KN03 251535Z AUTO 00000KT 10SM DZ OVC012 13/12 A3024 RMK AO2
KN03 251515Z AUTO 33003KT 10SM -RA BKN014 OVC041 13/12 A3025 RMK AO2
KN03 251455Z AUTO 21004KT 10SM -RA BKN014 BKN038 OVC047 13/11 A3025 RMK AO2
KN03 251435Z AUTO 10004KT 10SM -RA SCT012 SCT040 OVC050 12/11 A3025 RMK AO2
KN03 251415Z AUTO 11003KT 10SM -RA BKN012 OVC050 12/11 A3026 RMK AO2
KN03 251355Z AUTO 00000KT 10SM BKN012 OVC060 12/11 A3027 RMK AO2
KN03 251335Z AUTO 00000KT 10SM -RA OVC012 12/11 A3027 RMK AO2
KN03 251315Z AUTO 00000KT 10SM -DZ BKN012 OVC017 11/11 A3028 RMK AO2
KN03 251255Z AUTO 17006KT 10SM -RA BKN014 BKN042 OVC075 11/10 A3029 RMK AO2
KN03 251235Z AUTO 15004KT 10SM -RA SCT012 BKN048 OVC075 11/10 A3029 RMK AO2
KN03 251215Z AUTO 16008G14KT 118V218 10SM -RA SCT012 BKN047 OVC090 11/10 A3029 RMK AO2
KN03 251155Z AUTO 12003KT 10SM RA BKN012 BKN025 OVC090 11/10 A3029 RMK AO2
KN03 251135Z AUTO 00000KT 10SM RA OVC012 11/10 A3030 RMK AO2
KN03 251115Z AUTO 20003G15KT 10SM RA OVC014 11/10 A3031 RMK AO2
KN03 251055Z AUTO 00000KT 7SM RA OVC014 10/10 A3031 RMK AO2
KN03 251035Z AUTO 12006G14KT 10SM RA OVC014 11/10 A3031 RMK AO2
KN03 251015Z AUTO 00000KT 7SM RA OVC014 10/10 A3032 RMK AO2
KN03 250955Z AUTO 18004KT 5SM +RA OVC014 10/10 A3033 RMK AO2
KN03 250935Z AUTO 14004KT 4SM +RA OVC014 10/10 A3033 RMK AO2
KN03 250915Z AUTO 11005KT 5SM +RA OVC012 10/10 A3032 RMK AO2
KN03 250855Z AUTO 00000KT 3SM +RA BKN010 OVC014 10/10 A3033 RMK AO2
KN03 250835Z AUTO 01003KT 4SM +RA OVC012 11/10 A3033 RMK AO2
KN03 250815Z AUTO 00000KT 5SM +RA OVC012 11/10 A3034 RMK AO2
KN03 250755Z AUTO 07006KT 7SM RA OVC012 11/10 A3034 RMK AO2
KN03 250735Z AUTO 00000KT 7SM RA OVC014 11/10 A3034 RMK AO2
KN03 250715Z AUTO 00000KT 7SM RA BKN012 OVC020 11/10 A3036 RMK AO2
KN03 250655Z AUTO 19003KT 7SM RA OVC014 11/10 A3036 RMK AO2
KN03 250635Z AUTO 15005KT 10SM RA OVC016 11/10 A3037 RMK AO2
KN03 250615Z AUTO 11003G15KT 10SM RA OVC018 12/10 A3038 RMK AO2
KN03 250555Z AUTO 12003KT 10SM OVC018 12/10 A3038 RMK AO2
KN03 250535Z AUTO 09005KT 10SM -RA OVC018 12/10 A3038 RMK AO2
KN03 250515Z AUTO 13004KT 10SM -RA OVC020 12/10 A3039 RMK AO2
KN03 250455Z AUTO 13005G17KT 098V168 10SM OVC020 12/10 A3039 RMK AO2
KN03 250435Z AUTO 16007KT 10SM OVC018 13/10 A3039 RMK AO2
KN03 250415Z AUTO 11008G15KT 10SM OVC018 13/10 A3039 RMK AO2
KN03 250355Z AUTO 15005G18KT 10SM OVC018 13/10 A3040 RMK AO2
KN03 250335Z AUTO 15008KT 10SM OVC018 13/10 A3040 RMK AO2
KN03 250315Z AUTO 13005KT 10SM OVC020 13/10 A3040 RMK AO2
KN03 250255Z AUTO 15003KT 10SM BKN022 13/10 A3040 RMK AO2
KN03 250235Z AUTO 13004KT 10SM SCT024 13/10 A3040 RMK AO2
KN03 250215Z AUTO 14008KT 10SM SCT019 SCT028 13/10 A3041 RMK AO2
KN03 250155Z AUTO 12005KT 10SM OVC028 13/10 A3041 RMK AO2
KN03 250135Z AUTO 14005KT 10SM SCT019 BKN030 13/10 A3041 RMK AO2
KN03 250115Z AUTO 13006KT 10SM SCT017 13/10 A3041 RMK AO2
KN03 250055Z AUTO 13004KT 10SM SCT019 13/10 A3041 RMK AO2
KN03 250035Z AUTO 10005KT 10SM CLR 13/10 A3040 RMK AO2
KN03 250015Z AUTO 10005KT 10SM CLR 13/10 A3040 RMK AO2
KN03 242355Z AUTO 09007KT 10SM CLR 13/10 A3040 RMK AO2
KN03 242335Z AUTO 11006KT 10SM CLR 13/10 A3039 RMK AO2
KN03 242315Z AUTO 11006KT 10SM CLR 13/09 A3040 RMK AO2
KN03 242255Z AUTO 11005KT 10SM CLR 13/09 A3040 RMK AO2
KN03 242235Z AUTO 11005KT 10SM CLR 13/08 A3041 RMK AO2
KN03 242215Z AUTO 11004KT 10SM CLR 13/08 A3041 RMK AO2
KN03 242155Z AUTO 12008KT 10SM CLR 14/08 A3041 RMK AO2
KN03 242135Z AUTO 12005KT 10SM CLR 15/08 A3041 RMK AO2
KN03 242115Z AUTO 14005KT 10SM CLR 15/08 A3041 RMK AO2
KN03 242055Z AUTO 14009KT 088V178 10SM CLR 16/08 A3041 RMK AO2
KN03 242035Z AUTO 14006KT 098V178 10SM CLR 16/09 A3041 RMK AO2
KN03 242015Z AUTO 15008KT 118V178 10SM CLR 17/08 A3040 RMK AO2
KN03 241955Z AUTO 15009KT 10SM CLR 18/08 A3040 RMK AO2
KN03 241935Z AUTO 13004G16KT 10SM CLR 18/08 A3039 RMK AO2
KN03 241915Z AUTO 13007KT 10SM CLR 18/08 A3040 RMK AO2
KN03 241855Z AUTO 14008KT 10SM CLR 18/08 A3040 RMK AO2
KN03 241835Z AUTO 16007KT 10SM CLR 18/08 A3041 RMK AO2
KN03 241815Z AUTO 13006KT 10SM CLR 18/07 A3041 RMK AO2
KN03 241755Z AUTO 13008KT 10SM CLR 17/07 A3041 RMK AO2
KN03 241735Z AUTO 13009G14KT 10SM CLR 18/07 A3043 RMK AO2
KN03 241715Z AUTO 11007KT 078V138 10SM CLR 18/08 A3043 RMK AO2
KN03 241655Z AUTO 13006KT 10SM CLR 17/08 A3043 RMK AO2